Denver, CO (80234)

11:54 AM MDT on May 30, 2016 (GMT -0600)
Bronco Park, Broomfield, CO | | Change Station

Elev 5233 ft 39.93 °N, 105.03 °W | Updated 13 minutes ago

Clear
Clear
82.4 °F
Feels Like 80 °F
N
2.2
Wind Variable Wind from ENE

Today
High -- | Low -- °F
--% Chance of Precip.
Yesterday
High -- | Low -- °F
Precip. -- in
Pressure 29.87 in
Visibility 10.0 miles
Clouds Few 10000 ft
Few 14000 ft
Few 22000 ft
Heat Index 80 °F
Dew Point 43 °F
Humidity 25%
Rainfall 0.00 in
Snow Depth Not available.
5:34 AM 8:21 PM
Last Quarter, 36% visible
METAR KAPA 301653Z 12003KT 10SM FEW100 FEW140 FEW220 23/01 A3003 RMK AO2 SLP113 VIRGA W T02330006
Pressure 29.87 in
Visibility 10.0 miles
Clouds Few 10000 ft
Few 14000 ft
Few 22000 ft
Heat Index 80 °F
Dew Point 43 °F
Humidity 25%
Rainfall 0.00 in
Snow Depth Not available.
5:34 AM 8:21 PM
Last Quarter, 36% visible
METAR KAPA 301653Z 12003KT 10SM FEW100 FEW140 FEW220 23/01 A3003 RMK AO2 SLP113 VIRGA W T02330006

10-Day Weather Forecast

Almanac

Astronomy

May. 30, 2016 Rise Set
Actual Time
Civil Twilight
Nautical Twilight
Astronomical Twilight
Moon
Length of Visible Light
Length of Day
Tomorrow will be .
, % of the Moon is Illuminated

Today's Extremes

State Highs State Lows

Community

WunderPhotos

Upload Photos

1,914,688 photos uploaded!

WunderBlog® & News

Nearby

Air Quality

  Air Quality AQ Index Pollutant
Not available.

Snow Depth

Station Depth Elevation

Earthquake Activity

City Distance Mag. Time & Date
Minimum magnitude displayed is 2.5.

Coastal Water Temperatures

Place Temperature

Stations

Nearby Weather Stations

Station Location Temp. Windchill Dew Point Humidity Wind Precip. Elev Updated Type
                   

Watches & Warnings

There are currently no watches in effect.